Time;durP1;ratioP1;P1;durP2;ratioP2;P2;SDS_P1;SDS_P2;PMS_P1;PMS_P2;Temp;Humidity;BMP_temperature;BMP_pressure;BME280_temperature;BME280_humidity;BME280_pressure;Samples;Min_cycle;Max_cycle;Signal;HPM_P1;HPM_P2
2023/09/11 00:00:00;;;;;;;167.67;155.20;;;;;;;;;;5027083;28;20009;-58
2023/09/11 00:02:26;;;;;;;125.38;116.78;;;;;;;;;;5024500;28;20362;-58
2023/09/11 00:04:51;;;;;;;143.68;133.38;;;;;;;;;;5023464;28;20405;-58
2023/09/11 00:07:16;;;;;;;128.90;120.63;;;;;;;;;;5013732;28;20033;-58
2023/09/11 00:09:42;;;;;;;125.18;116.43;;;;;;;;;;5024056;28;20057;-58
2023/09/11 00:12:07;;;;;;;103.90;96.63;;;;;;;;;;5025183;28;20021;-58
2023/09/11 00:14:32;;;;;;;146.70;136.67;;;;;;;;;;5013450;28;20107;-58
2023/09/11 00:16:57;;;;;;;197.63;183.27;;;;;;;;;;5022380;28;21064;-58
2023/09/11 00:19:22;;;;;;;121.07;112.13;;;;;;;;;;5020708;28;20025;-56
2023/09/11 00:21:47;;;;;;;60.87;56.43;;;;;;;;;;5017654;28;20025;-58
2023/09/11 00:24:13;;;;;;;144.10;132.93;;;;;;;;;;5018194;28;20021;-57
2023/09/11 00:26:38;;;;;;;80.63;75.07;;;;;;;;;;5018973;28;20096;-58
2023/09/11 00:29:03;;;;;;;141.90;130.67;;;;;;;;;;5020933;28;20047;-57
2023/09/11 00:31:28;;;;;;;58.33;54.25;;;;;;;;;;5018706;28;20026;-58
2023/09/11 00:33:53;;;;;;;119.93;110.18;;;;;;;;;;5018664;28;20030;-58
2023/09/11 00:36:18;;;;;;;77.37;71.60;;;;;;;;;;5020649;28;20444;-59
2023/09/11 00:38:47;;;;;;;55.67;52.03;;;;;;;;;;5016036;28;20068;-59
2023/09/11 00:41:12;;;;;;;68.25;63.78;;;;;;;;;;5013038;28;20018;-58
2023/09/11 00:43:38;;;;;;;105.17;97.83;;;;;;;;;;5014083;28;20091;-58
2023/09/11 00:46:03;;;;;;;141.67;132.70;;;;;;;;;;5014656;28;20101;-58
2023/09/11 00:48:29;;;;;;;65.97;61.77;;;;;;;;;;5016709;28;20109;-58
2023/09/11 00:50:55;;;;;;;42.30;39.40;;;;;;;;;;5014327;28;20639;-58
2023/09/11 00:53:20;;;;;;;150.53;140.67;;;;;;;;;;5013126;28;20436;-58
2023/09/11 00:55:45;;;;;;;71.43;66.57;;;;;;;;;;5015238;28;20534;-58
2023/09/11 00:58:12;;;;;;;88.88;82.60;;;;;;;;;;5013883;28;20049;-58
2023/09/11 01:00:37;;;;;;;75.68;70.40;;;;;;;;;;5014484;28;20021;-57
2023/09/11 01:03:03;;;;;;;60.03;55.77;;;;;;;;;;5017838;28;20026;-58
2023/09/11 01:05:29;;;;;;;171.20;159.70;;;;;;;;;;5019821;28;20393;-58
2023/09/11 01:07:54;;;;;;;77.70;72.15;;;;;;;;;;5015678;28;20025;-58
2023/09/11 01:10:19;;;;;;;210.53;196.50;;;;;;;;;;5014326;28;20020;-58
2023/09/11 01:12:44;;;;;;;146.15;135.88;;;;;;;;;;5014462;28;20109;-59
2023/09/11 01:15:10;;;;;;;84.70;78.03;;;;;;;;;;5019447;28;21940;-58
2023/09/11 01:17:41;;;;;;;63.70;59.37;;;;;;;;;;5019914;28;20025;-58
2023/09/11 01:20:18;;;;;;;63.35;58.95;;;;;;;;;;5015644;28;20456;-59
2023/09/11 01:23:09;;;;;;;67.80;63.17;;;;;;;;;;5025311;28;20025;-58
2023/09/11 01:25:43;;;;;;;142.75;132.85;;;;;;;;;;5015287;28;20077;-57
2023/09/11 01:28:29;;;;;;;44.63;41.45;;;;;;;;;;5018514;28;20026;-58
2023/09/11 01:30:54;;;;;;;184.07;171.60;;;;;;;;;;5017977;28;20025;-57
2023/09/11 01:33:19;;;;;;;102.87;95.73;;;;;;;;;;5016081;28;20022;-57
2023/09/11 01:35:45;;;;;;;105.13;98.43;;;;;;;;;;5015091;28;20037;-59
2023/09/11 01:38:10;;;;;;;53.37;49.50;;;;;;;;;;5024336;28;20051;-58
2023/09/11 01:40:37;;;;;;;165.25;154.25;;;;;;;;;;5014796;28;20033;-57
2023/09/11 01:43:05;;;;;;;153.52;142.55;;;;;;;;;;5011189;28;20029;-59
2023/09/11 01:45:32;;;;;;;52.13;48.25;;;;;;;;;;5014154;28;20026;-59
2023/09/11 01:47:58;;;;;;;46.80;43.25;;;;;;;;;;5014242;28;20030;-59
2023/09/11 01:50:23;;;;;;;;;;;;;;;;;;5018186;28;20145;-59
2023/09/11 01:52:49;;;;;;;104.75;97.70;;;;;;;;;;5017360;28;20004;-58
2023/09/11 01:55:15;;;;;;;48.25;44.78;;;;;;;;;;5011925;28;20405;-57
2023/09/11 01:57:40;;;;;;;139.60;129.88;;;;;;;;;;5016847;28;20486;-58
2023/09/11 02:00:05;;;;;;;49.87;46.43;;;;;;;;;;5018191;28;20022;-58
2023/09/11 02:02:31;;;;;;;84.53;78.63;;;;;;;;;;5013786;28;20022;-58
2023/09/11 02:04:56;;;;;;;129.85;121.30;;;;;;;;;;5018241;28;20034;-58
2023/09/11 02:07:21;;;;;;;191.20;178.37;;;;;;;;;;5013724;28;20033;-59
2023/09/11 02:09:46;;;;;;;164.65;153.75;;;;;;;;;;5023383;28;20025;-58
2023/09/11 02:12:11;;;;;;;185.57;173.70;;;;;;;;;;5015654;28;20022;-58
2023/09/11 02:14:37;;;;;;;125.60;116.63;;;;;;;;;;5019718;28;20013;-57
2023/09/11 02:17:02;;;;;;;34.80;32.20;;;;;;;;;;5017653;28;20041;-58
2023/09/11 02:19:28;;;;;;;156.77;145.52;;;;;;;;;;5011511;28;20026;-58
2023/09/11 02:21:53;;;;;;;162.30;149.98;;;;;;;;;;5011993;28;20612;-58
2023/09/11 02:24:18;;;;;;;118.23;109.63;;;;;;;;;;5017450;28;20030;-58
2023/09/11 02:26:44;;;;;;;81.20;75.77;;;;;;;;;;5015667;28;20021;-58
2023/09/11 02:29:09;;;;;;;98.13;91.40;;;;;;;;;;5012065;28;20030;-58
2023/09/11 02:31:34;;;;;;;113.97;106.77;;;;;;;;;;5014904;28;20392;-58
2023/09/11 02:33:59;;;;;;;40.20;37.40;;;;;;;;;;5012715;28;20153;-57
2023/09/11 02:36:24;;;;;;;137.40;127.87;;;;;;;;;;5016219;28;20037;-58
2023/09/11 02:38:49;;;;;;;103.00;95.57;;;;;;;;;;5010552;28;20036;-58
2023/09/11 02:41:14;;;;;;;76.22;70.97;;;;;;;;;;5017911;28;20314;-58
2023/09/11 02:43:40;;;;;;;115.82;107.20;;;;;;;;;;5015594;28;20033;-58
2023/09/11 02:46:05;;;;;;;118.47;109.90;;;;;;;;;;5016029;28;20128;-58
2023/09/11 02:48:31;;;;;;;55.10;51.23;;;;;;;;;;5010365;28;20084;-57
2023/09/11 02:50:56;;;;;;;91.57;85.57;;;;;;;;;;5014058;28;20021;-58
2023/09/11 02:53:21;;;;;;;197.02;183.23;;;;;;;;;;5010360;28;20025;-58
2023/09/11 02:55:47;;;;;;;243.37;226.27;;;;;;;;;;5010263;28;20045;-57
2023/09/11 02:58:12;;;;;;;65.73;61.47;;;;;;;;;;5011292;28;20245;-58
2023/09/11 03:00:37;;;;;;;58.77;54.87;;;;;;;;;;5017859;28;20100;-58
2023/09/11 03:03:03;;;;;;;42.28;39.08;;;;;;;;;;5010739;28;20101;-58
2023/09/11 03:05:31;;;;;;;244.23;227.77;;;;;;;;;;5013700;28;20034;-57
2023/09/11 03:07:56;;;;;;;95.30;89.25;;;;;;;;;;5018068;28;20517;-58
2023/09/11 03:10:22;;;;;;;145.33;134.90;;;;;;;;;;5011060;28;20096;-57
2023/09/11 03:12:47;;;;;;;43.25;39.90;;;;;;;;;;5010275;28;20040;-58
2023/09/11 03:15:12;;;;;;;136.20;127.03;;;;;;;;;;5010935;28;20033;-58
2023/09/11 03:17:38;;;;;;;118.00;109.77;;;;;;;;;;5010374;28;20539;-58
2023/09/11 03:20:05;;;;;;;161.98;150.77;;;;;;;;;;5013494;28;20035;-57
2023/09/11 03:22:30;;;;;;;101.13;94.07;;;;;;;;;;5011544;28;20402;-57
2023/09/11 03:24:55;;;;;;;207.27;193.93;;;;;;;;;;5013634;28;20496;-57
2023/09/11 03:27:21;;;;;;;103.83;96.23;;;;;;;;;;5027491;28;20056;-57
2023/09/11 03:29:49;;;;;;;40.37;37.57;;;;;;;;;;5019307;28;20152;-57
2023/09/11 03:32:14;;;;;;;157.48;146.43;;;;;;;;;;5020625;28;20034;-58
2023/09/11 03:34:39;;;;;;;136.33;126.57;;;;;;;;;;5017229;28;20108;-57
2023/09/11 03:37:05;;;;;;;48.70;45.17;;;;;;;;;;5012667;28;20485;-57
2023/09/11 03:39:30;;;;;;;58.63;54.43;;;;;;;;;;5015687;28;20022;-57
2023/09/11 03:41:55;;;;;;;121.63;113.77;;;;;;;;;;5017423;28;20033;-56
2023/09/11 03:44:20;;;;;;;50.17;46.63;;;;;;;;;;5015277;28;20030;-57
2023/09/11 03:46:45;;;;;;;73.57;68.57;;;;;;;;;;5015395;28;20452;-57
2023/09/11 03:49:11;;;;;;;52.50;48.53;;;;;;;;;;5015746;28;20057;-57
2023/09/11 03:51:36;;;;;;;147.68;136.98;;;;;;;;;;5018283;28;20029;-56
2023/09/11 03:54:05;;;;;;;165.17;153.23;;;;;;;;;;5014029;28;20024;-57
2023/09/11 03:56:30;;;;;;;173.77;162.38;;;;;;;;;;5016153;28;20377;-57
2023/09/11 03:58:55;;;;;;;154.30;144.23;;;;;;;;;;5024067;28;20025;-56
2023/09/11 04:01:20;;;;;;;38.83;35.97;;;;;;;;;;5013743;28;20052;-58
2023/09/11 04:03:45;;;;;;;92.88;86.35;;;;;;;;;;5014661;28;20028;-57
2023/09/11 04:06:11;;;;;;;45.30;42.10;;;;;;;;;;5021469;28;20426;-57
2023/09/11 04:08:36;;;;;;;73.13;68.13;;;;;;;;;;5015632;28;20030;-57
2023/09/11 04:11:01;;;;;;;222.02;206.20;;;;;;;;;;5019570;28;20323;-57
2023/09/11 04:13:26;;;;;;;74.80;69.33;;;;;;;;;;5021545;28;20025;-56
2023/09/11 04:15:51;;;;;;;32.03;29.43;;;;;;;;;;5026892;28;20509;-57
2023/09/11 04:18:17;;;;;;;132.17;122.93;;;;;;;;;;5020313;28;20456;-57
2023/09/11 04:20:42;;;;;;;45.08;42.05;;;;;;;;;;5017830;28;20543;-57
2023/09/11 04:23:08;;;;;;;129.70;121.00;;;;;;;;;;5012512;28;20373;-57
2023/09/11 04:25:33;;;;;;;27.47;25.40;;;;;;;;;;5014966;28;20034;-57
2023/09/11 04:27:58;;;;;;;117.63;109.82;;;;;;;;;;5020448;28;20037;-57
2023/09/11 04:30:24;;;;;;;150.00;140.20;;;;;;;;;;5023070;28;20083;-58
2023/09/11 04:32:49;;;;;;;116.83;108.63;;;;;;;;;;5015650;28;20087;-57
2023/09/11 04:35:14;;;;;;;124.90;116.07;;;;;;;;;;5013546;28;20032;-59
2023/09/11 04:37:40;;;;;;;45.22;41.92;;;;;;;;;;5018325;28;20064;-57
2023/09/11 04:40:05;;;;;;;183.03;170.40;;;;;;;;;;5013229;28;20025;-57
2023/09/11 04:42:30;;;;;;;176.40;164.45;;;;;;;;;;5014109;28;20974;-58
2023/09/11 04:44:58;;;;;;;92.63;86.13;;;;;;;;;;5027580;28;20029;-57
2023/09/11 04:47:24;;;;;;;110.30;101.88;;;;;;;;;;5011478;28;20688;-57
2023/09/11 04:49:49;;;;;;;147.85;137.60;;;;;;;;;;5015807;28;20138;-56
2023/09/11 04:52:14;;;;;;;43.87;40.70;;;;;;;;;;5022281;28;20128;-57
2023/09/11 04:54:39;;;;;;;146.50;136.10;;;;;;;;;;5025693;28;20165;-57
2023/09/11 04:57:05;;;;;;;50.47;47.13;;;;;;;;;;5014456;28;20488;-57
2023/09/11 04:59:30;;;;;;;152.87;142.80;;;;;;;;;;5012321;28;20065;-56
2023/09/11 05:01:55;;;;;;;42.42;39.22;;;;;;;;;;5009753;28;20480;-57
2023/09/11 05:04:20;;;;;;;78.03;72.93;;;;;;;;;;5021098;28;20104;-57
2023/09/11 05:06:46;;;;;;;45.13;41.93;;;;;;;;;;5017884;28;20034;-57
2023/09/11 05:09:11;;;;;;;75.97;70.68;;;;;;;;;;5024831;28;20520;-58
2023/09/11 05:11:36;;;;;;;30.33;27.77;;;;;;;;;;5019687;28;20504;-57
2023/09/11 05:14:02;;;;;;;51.07;47.50;;;;;;;;;;5026486;28;20085;-57
2023/09/11 05:16:27;;;;;;;154.65;143.90;;;;;;;;;;5021086;28;20392;-58
2023/09/11 05:18:52;;;;;;;163.40;152.13;;;;;;;;;;5018007;28;20440;-59
2023/09/11 05:21:18;;;;;;;54.97;51.10;;;;;;;;;;5022083;28;20093;-60
2023/09/11 05:23:44;;;;;;;66.07;61.58;;;;;;;;;;5026001;28;20347;-58
2023/09/11 05:26:09;;;;;;;85.00;79.10;;;;;;;;;;5026834;28;20022;-58
2023/09/11 05:28:35;;;;;;;104.07;97.00;;;;;;;;;;5032503;28;20175;-57
2023/09/11 05:31:00;;;;;;;50.20;46.70;;;;;;;;;;5033385;28;20025;-57
2023/09/11 05:33:25;;;;;;;44.50;41.33;;;;;;;;;;5029683;28;20025;-57
2023/09/11 05:35:50;;;;;;;142.70;133.00;;;;;;;;;;5024877;28;20033;-58
2023/09/11 05:38:15;;;;;;;62.83;58.47;;;;;;;;;;5018091;28;20379;-58
2023/09/11 05:40:40;;;;;;;98.83;91.97;;;;;;;;;;5033226;28;20033;-57
2023/09/11 05:43:05;;;;;;;87.33;81.43;;;;;;;;;;5035695;28;20044;-57
2023/09/11 05:45:31;;;;;;;156.07;145.20;;;;;;;;;;5038882;28;20066;-58
2023/09/11 05:47:56;;;;;;;51.90;48.08;;;;;;;;;;5051379;28;20067;-58
2023/09/11 05:50:21;;;;;;;48.77;45.13;;;;;;;;;;5020111;28;20391;-58
2023/09/11 05:52:46;;;;;;;64.97;60.17;;;;;;;;;;5017398;28;20481;-58
2023/09/11 05:55:11;;;;;;;43.80;40.53;;;;;;;;;;5019461;28;20026;-58
2023/09/11 05:57:37;;;;;;;39.53;36.77;;;;;;;;;;5019826;28;20159;-58
2023/09/11 06:00:09;;;;;;;68.32;63.65;;;;;;;;;;5025365;28;20089;-57
2023/09/11 06:02:34;;;;;;;94.60;87.97;;;;;;;;;;5051331;28;20140;-58
2023/09/11 06:04:59;;;;;;;180.07;167.77;;;;;;;;;;5033414;28;20100;-58
2023/09/11 06:07:25;;;;;;;88.40;82.63;;;;;;;;;;5022992;28;20369;-57
2023/09/11 06:09:50;;;;;;;66.40;62.05;;;;;;;;;;5011649;28;20213;-57
2023/09/11 06:12:15;;;;;;;57.40;53.50;;;;;;;;;;5032959;28;20033;-56
2023/09/11 06:14:40;;;;;;;86.67;80.77;;;;;;;;;;5050425;28;20028;-58
2023/09/11 06:17:05;;;;;;;92.43;85.85;;;;;;;;;;5020042;28;20405;-57
2023/09/11 06:19:31;;;;;;;114.32;106.28;;;;;;;;;;5023854;28;20060;-57
2023/09/11 06:21:56;;;;;;;109.63;102.63;;;;;;;;;;5026921;28;20033;-57
2023/09/11 06:24:21;;;;;;;171.30;159.23;;;;;;;;;;5016207;28;20026;-58
2023/09/11 06:26:46;;;;;;;140.93;131.35;;;;;;;;;;5022922;28;20437;-58
2023/09/11 06:29:13;;;;;;;60.33;55.90;;;;;;;;;;5029111;28;20064;-60
2023/09/11 06:31:38;;;;;;;165.70;155.05;;;;;;;;;;5043541;28;20420;-58
2023/09/11 06:34:05;;;;;;;89.57;83.40;;;;;;;;;;5018331;28;20029;-57
2023/09/11 06:36:30;;;;;;;;;;;;;;;;;;5015591;28;20037;-58
2023/09/11 06:38:55;;;;;;;69.60;64.75;;;;;;;;;;5011639;28;19910;-58
2023/09/11 06:41:20;;;;;;;70.77;65.57;;;;;;;;;;5030572;28;20472;-58
2023/09/11 06:43:46;;;;;;;92.55;85.85;;;;;;;;;;5024675;28;20028;-58
2023/09/11 06:46:11;;;;;;;106.93;98.80;;;;;;;;;;5036307;28;20056;-58
2023/09/11 06:48:36;;;;;;;89.07;82.88;;;;;;;;;;5022645;28;20033;-58
2023/09/11 06:51:01;;;;;;;74.90;70.18;;;;;;;;;;5011105;28;20101;-58
2023/09/11 06:53:27;;;;;;;73.40;68.33;;;;;;;;;;5015587;28;20022;-57
2023/09/11 06:55:53;;;;;;;72.50;68.03;;;;;;;;;;5022009;28;20410;-57
2023/09/11 06:58:18;;;;;;;;;;;;;;;;;;5045003;28;20017;-56
2023/09/11 07:00:43;;;;;;;72.75;68.00;;;;;;;;;;5030798;28;19909;-57
2023/09/11 07:03:08;;;;;;;221.90;206.40;;;;;;;;;;5020651;28;20103;-57
2023/09/11 07:05:34;;;;;;;90.90;84.13;;;;;;;;;;5011060;28;20018;-56
2023/09/11 07:07:59;;;;;;;146.40;136.27;;;;;;;;;;5010669;28;20100;-56
2023/09/11 07:10:25;;;;;;;97.37;91.27;;;;;;;;;;5014089;28;20056;-57
2023/09/11 07:12:50;;;;;;;81.83;76.73;;;;;;;;;;5046084;28;20086;-57
2023/09/11 07:15:18;;;;;;;80.07;75.10;;;;;;;;;;5038453;28;20440;-57
2023/09/11 07:17:45;;;;;;;218.63;202.65;;;;;;;;;;5022287;28;20028;-58
2023/09/11 07:20:11;;;;;;;88.07;82.22;;;;;;;;;;5024779;28;20093;-57
2023/09/11 07:22:36;;;;;;;91.93;85.80;;;;;;;;;;5030672;28;20447;-57
2023/09/11 07:25:02;;;;;;;143.70;132.33;;;;;;;;;;5030001;28;20047;-56
2023/09/11 07:27:33;;;;;;;136.25;125.32;;;;;;;;;;5045491;28;20017;-57
2023/09/11 07:29:58;;;;;;;152.85;140.98;;;;;;;;;;5031806;28;20017;-58
2023/09/11 07:32:23;;;;;;;223.68;206.52;;;;;;;;;;5025539;28;20453;-56
2023/09/11 07:34:48;;;;;;;112.87;105.67;;;;;;;;;;5037360;28;20029;-57
2023/09/11 07:37:14;;;;;;;98.57;92.43;;;;;;;;;;5052911;28;20375;-57
2023/09/11 07:39:39;;;;;;;117.28;108.97;;;;;;;;;;5048034;28;20021;-57
2023/09/11 07:42:04;;;;;;;213.23;198.70;;;;;;;;;;5052905;28;20076;-57
2023/09/11 07:44:29;;;;;;;129.53;121.20;;;;;;;;;;5036035;28;20022;-57
2023/09/11 07:46:54;;;;;;;154.32;145.02;;;;;;;;;;5021112;28;20018;-57
2023/09/11 07:49:19;;;;;;;186.13;172.90;;;;;;;;;;5012460;28;20029;-57
2023/09/11 07:51:45;;;;;;;230.88;214.02;;;;;;;;;;5017256;28;20026;-58
2023/09/11 07:54:10;;;;;;;105.90;99.07;;;;;;;;;;5033469;28;20432;-57
2023/09/11 07:56:36;;;;;;;125.63;117.35;;;;;;;;;;5052168;28;20088;-57
2023/09/11 07:59:01;;;;;;;235.65;215.90;;;;;;;;;;5033537;28;20026;-56
2023/09/11 08:01:27;;;;;;;107.13;99.37;;;;;;;;;;5036583;28;20079;-57
2023/09/11 08:03:52;;;;;;;146.35;136.38;;;;;;;;;;5052794;28;20021;-58
2023/09/11 08:06:18;;;;;;;161.70;147.67;;;;;;;;;;5035538;28;20029;-58
2023/09/11 08:08:44;;;;;;;149.98;139.10;;;;;;;;;;5029126;28;20041;-57
2023/09/11 08:11:12;;;;;;;146.50;135.87;;;;;;;;;;5050505;28;20025;-57
2023/09/11 08:13:37;;;;;;;137.18;128.35;;;;;;;;;;5032451;28;20025;-57
2023/09/11 08:16:02;;;;;;;244.23;227.33;;;;;;;;;;5041214;28;20094;-57
2023/09/11 08:18:27;;;;;;;120.90;113.00;;;;;;;;;;5052213;28;20063;-57
2023/09/11 08:20:52;;;;;;;225.87;208.10;;;;;;;;;;5024022;28;20052;-57
2023/09/11 08:23:18;;;;;;;198.20;183.35;;;;;;;;;;5023799;28;20056;-57
2023/09/11 08:25:43;;;;;;;184.82;172.75;;;;;;;;;;5032399;28;20041;-57
2023/09/11 08:28:08;;;;;;;246.63;228.30;;;;;;;;;;5022999;28;20439;-57
2023/09/11 08:30:33;;;;;;;242.68;226.85;;;;;;;;;;4988376;28;1083841;-57
2023/09/11 08:32:59;;;;;;;226.37;208.87;;;;;;;;;;5013427;28;20025;-57
2023/09/11 08:35:24;;;;;;;161.15;149.63;;;;;;;;;;5013310;28;20100;-58
2023/09/11 08:37:49;;;;;;;307.97;284.83;;;;;;;;;;5013229;28;20264;-57
2023/09/11 08:40:14;;;;;;;168.77;156.63;;;;;;;;;;5029543;28;20037;-58
2023/09/11 08:42:40;;;;;;;284.80;264.75;;;;;;;;;;5029450;28;20400;-56
2023/09/11 08:45:05;;;;;;;241.53;226.37;;;;;;;;;;5033917;28;20366;-57
2023/09/11 08:47:30;;;;;;;205.60;189.60;;;;;;;;;;5053348;28;20489;-57
2023/09/11 08:49:59;;;;;;;155.00;144.97;;;;;;;;;;5052551;28;20075;-58
2023/09/11 08:52:25;;;;;;;148.25;137.27;;;;;;;;;;5035931;28;20448;-57
2023/09/11 08:54:52;;;;;;;162.50;151.20;;;;;;;;;;5052860;28;20070;-58
2023/09/11 08:57:21;;;;;;;232.38;213.93;;;;;;;;;;5044575;28;20018;-57
2023/09/11 08:59:47;;;;;;;257.55;237.10;;;;;;;;;;5030917;28;20552;-58
2023/09/11 09:02:12;;;;;;;225.77;208.60;;;;;;;;;;5051453;28;20095;-57
2023/09/11 09:04:38;;;;;;;195.40;181.23;;;;;;;;;;5051139;28;20427;-57
2023/09/11 09:07:04;;;;;;;266.35;245.93;;;;;;;;;;5047465;28;20112;-57
2023/09/11 09:09:29;;;;;;;164.35;152.23;;;;;;;;;;5051783;28;20025;-57
2023/09/11 09:11:54;;;;;;;;;;;;;;;;;;5033380;28;20075;-56
2023/09/11 09:14:20;;;;;;;157.93;144.73;;;;;;;;;;5017361;28;19909;-57
2023/09/11 09:16:45;;;;;;;;;;;;;;;;;;5021372;28;20115;-58
2023/09/11 09:19:10;;;;;;;173.10;160.90;;;;;;;;;;5013869;28;19915;-57
2023/09/11 09:21:35;;;;;;;254.23;236.00;;;;;;;;;;5032514;28;20056;-57
2023/09/11 09:24:00;;;;;;;;;;;;;;;;;;5032655;28;20170;-58
2023/09/11 09:26:25;;;;;;;218.93;202.82;;;;;;;;;;5027330;28;19909;-57
2023/09/11 09:28:54;;;;;;;217.53;201.93;;;;;;;;;;5026178;28;20029;-58
2023/09/11 09:31:25;;;;;;;242.85;224.60;;;;;;;;;;5051664;28;20426;-57
2023/09/11 09:33:55;;;;;;;259.33;240.05;;;;;;;;;;5033278;28;20021;-57
2023/09/11 09:36:20;;;;;;;189.20;174.38;;;;;;;;;;5023551;28;20388;-57
2023/09/11 09:38:46;;;;;;;238.97;220.20;;;;;;;;;;5031443;28;20025;-57
2023/09/11 09:41:11;;;;;;;284.60;258.52;;;;;;;;;;5024074;28;20040;-56
2023/09/11 09:43:37;;;;;;;417.88;379.88;;;;;;;;;;5030549;28;20052;-58
2023/09/11 09:46:02;;;;;;;;;;;;;;;;;;5049107;28;20380;-57
2023/09/11 09:48:28;;;;;;;303.50;277.35;;;;;;;;;;5050842;28;19959;-57
2023/09/11 09:50:53;;;;;;;;;;;;;;;;;;5033517;28;20033;-57
2023/09/11 09:53:32;;;;;;;243.75;226.07;;;;;;;;;;5032079;28;19905;-56
2023/09/11 09:56:03;;;;;;;298.08;276.40;;;;;;;;;;5028535;28;20536;-56
2023/09/11 09:58:29;;;;;;;429.58;391.60;;;;;;;;;;5031407;28;20017;-57
2023/09/11 10:00:58;;;;;;;353.30;324.50;;;;;;;;;;5030908;28;20025;-56
2023/09/11 10:03:23;;;;;;;337.92;311.73;;;;;;;;;;5031328;28;20033;-56
2023/09/11 10:05:49;;;;;;;298.57;271.43;;;;;;;;;;5031245;28;20029;-57
2023/09/11 10:08:15;;;;;;;;;;;;;;;;;;5030701;28;20025;-57
2023/09/11 10:10:40;;;;;;;328.40;302.77;;;;;;;;;;5021559;28;19916;-57
2023/09/11 10:13:05;;;;;;;;;;;;;;;;;;5021348;28;20102;-57
2023/09/11 10:15:31;;;;;;;319.53;294.00;;;;;;;;;;5030745;28;19912;-58
2023/09/11 10:17:57;;;;;;;;;;;;;;;;;;5032052;28;20021;-58
2023/09/11 10:20:22;;;;;;;467.45;429.10;;;;;;;;;;5030543;28;19982;-57
2023/09/11 10:22:47;;;;;;;;;;;;;;;;;;5031617;28;20028;-57
2023/09/11 10:25:13;;;;;;;456.08;417.70;;;;;;;;;;5040650;28;19940;-56
2023/09/11 10:27:38;;;;;;;;;;;;;;;;;;5021331;28;20535;-57
2023/09/11 10:30:04;;;;;;;306.40;283.83;;;;;;;;;;5012820;28;19906;-56
2023/09/11 10:32:35;;;;;;;329.58;301.67;;;;;;;;;;5011147;28;20481;-57
2023/09/11 10:35:01;;;;;;;296.77;271.35;;;;;;;;;;5011155;28;20535;-57
2023/09/11 10:37:28;;;;;;;338.75;312.27;;;;;;;;;;5012792;28;20010;-57
2023/09/11 10:39:54;;;;;;;494.63;450.25;;;;;;;;;;5025985;28;20037;-57
2023/09/11 10:42:19;;;;;;;;;;;;;;;;;;5012081;28;20029;-57
2023/09/11 10:44:44;;;;;;;399.25;366.63;;;;;;;;;;5011162;28;19909;-56
2023/09/11 10:47:11;;;;;;;;;;;;;;;;;;5035394;28;20017;-57
2023/09/11 10:49:37;;;;;;;452.35;416.42;;;;;;;;;;5042388;28;19936;-57
2023/09/11 10:52:03;;;;;;;319.48;292.65;;;;;;;;;;5048982;28;20489;-56
2023/09/11 10:54:28;;;;;;;;;;;;;;;;;;5031566;28;20045;-57
2023/09/11 10:56:55;;;;;;;432.85;396.67;;;;;;;;;;5030136;28;19916;-57
2023/09/11 10:59:23;;;;;;;360.85;329.90;;;;;;;;;;5029208;28;20025;-57
2023/09/11 11:01:49;;;;;;;433.52;395.55;;;;;;;;;;5032155;28;20674;-56
2023/09/11 11:04:14;;;;;;;;;;;;;;;;;;5021497;28;20013;-57
2023/09/11 11:06:42;;;;;;;491.10;451.75;;;;;;;;;;5022058;28;19910;-58
2023/09/11 11:09:22;;;;;;;517.35;471.17;;;;;;;;;;5026135;28;20546;-57
2023/09/11 11:11:47;;;;;;;490.42;451.45;;;;;;;;;;5010784;28;20044;-56
2023/09/11 11:14:12;;;;;;;;;;;;;;;;;;5014245;28;20026;-57
2023/09/11 11:16:38;;;;;;;567.28;520.78;;;;;;;;;;5028953;28;20399;-57
2023/09/11 11:19:03;;;;;;;;;;;;;;;;;;5047553;28;20214;-57
2023/09/11 11:21:37;;;;;;;382.80;352.20;;;;;;;;;;5037920;28;20280;-57
2023/09/11 11:24:04;;;;;;;366.60;337.40;;;;;;;;;;5018508;28;20010;-57
2023/09/11 11:26:30;;;;;;;481.05;437.98;;;;;;;;;;5010415;28;20082;-57
2023/09/11 11:28:55;;;;;;;;;;;;;;;;;;5010301;28;20105;-57
2023/09/11 11:31:21;;;;;;;462.30;426.92;;;;;;;;;;5021633;28;19919;-57
2023/09/11 11:33:46;;;;;;;;;;;;;;;;;;5033262;28;20025;-56
2023/09/11 11:36:11;;;;;;;421.98;386.90;;;;;;;;;;5031534;28;19932;-57
2023/09/11 11:38:36;;;;;;;;;;;;;;;;;;5016651;28;20422;-56
2023/09/11 11:41:07;;;;;;;533.38;489.90;;;;;;;;;;5010671;28;19906;-57
2023/09/11 11:43:32;;;;;;;413.70;381.85;;;;;;;;;;5017445;28;20017;-57
2023/09/11 11:45:57;;;;;;;;;;;;;;;;;;5021096;28;20504;-57
2023/09/11 11:48:22;;;;;;;340.27;310.20;;;;;;;;;;5049489;28;19913;-57
2023/09/11 11:50:48;;;;;;;401.60;369.33;;;;;;;;;;5030070;28;20061;-56
2023/09/11 11:53:13;;;;;;;;;;;;;;;;;;5011621;28;20044;-59
2023/09/11 11:55:39;;;;;;;527.13;484.00;;;;;;;;;;5010174;28;19905;-56
2023/09/11 11:58:08;;;;;;;;;;;;;;;;;;5010930;28;20051;-56
2023/09/11 12:00:34;;;;;;;530.28;483.85;;;;;;;;;;5012185;28;19913;-56
2023/09/11 12:02:59;;;;;;;;;;;;;;;;;;5039188;28;20044;-56
2023/09/11 12:05:24;;;;;;;538.70;491.30;;;;;;;;;;5029849;28;19912;-56
2023/09/11 12:07:49;;;;;;;;;;;;;;;;;;5026362;28;20117;-56
2023/09/11 12:10:14;;;;;;;516.88;471.75;;;;;;;;;;5029340;28;19920;-57
2023/09/11 12:12:40;;;;;;;;;;;;;;;;;;5032704;28;20022;-57
2023/09/11 12:15:05;;;;;;;446.05;408.95;;;;;;;;;;5033293;28;19905;-56
2023/09/11 12:17:31;;;;;;;415.08;379.38;;;;;;;;;;5039974;28;20096;-57
2023/09/11 12:19:56;;;;;;;;;;;;;;;;;;5036702;28;20408;-56
2023/09/11 12:22:21;;;;;;;415.00;381.30;;;;;;;;;;5020795;28;20003;-56
2023/09/11 12:24:46;;;;;;;;;;;;;;;;;;5040231;28;20037;-56
2023/09/11 12:27:11;;;;;;;439.20;401.00;;;;;;;;;;5051840;28;19951;-56
2023/09/11 12:29:36;;;;;;;;;;;;;;;;;;5052766;28;20120;-56
2023/09/11 12:32:01;;;;;;;414.13;378.95;;;;;;;;;;5032829;28;19924;-56
2023/09/11 12:34:27;;;;;;;;;;;;;;;;;;5028887;28;20018;-56
2023/09/11 12:36:53;;;;;;;402.73;369.83;;;;;;;;;;5027364;28;19909;-57
2023/09/11 12:39:18;;;;;;;520.17;474.73;;;;;;;;;;5033345;28;20035;-56
2023/09/11 12:41:43;;;;;;;389.20;356.02;;;;;;;;;;5033953;28;20033;-56
2023/09/11 12:44:08;;;;;;;430.53;396.87;;;;;;;;;;5034657;28;20440;-57
2023/09/11 12:46:33;;;;;;;;;;;;;;;;;;5044653;28;20036;-56
2023/09/11 12:48:59;;;;;;;526.65;472.48;;;;;;;;;;5028240;28;19917;-56
2023/09/11 12:51:24;;;;;;;;;;;;;;;;;;5033398;28;20208;-56
2023/09/11 12:53:49;;;;;;;478.70;439.30;;;;;;;;;;5032867;28;20369;-54
2023/09/11 12:56:19;;;;;;;441.63;405.27;;;;;;;;;;5033031;28;20031;-55
2023/09/11 12:58:44;;;;;;;478.70;442.30;;;;;;;;;;5032445;28;20017;-55
2023/09/11 13:01:11;;;;;;;546.13;501.90;;;;;;;;;;5030398;28;20040;-56
2023/09/11 13:03:36;;;;;;;505.45;465.10;;;;;;;;;;5032189;28;20013;-56
2023/09/11 13:06:01;;;;;;;562.37;517.23;;;;;;;;;;5032703;28;20436;-56
2023/09/11 13:08:28;;;;;;;560.47;508.93;;;;;;;;;;5032430;28;20030;-57
2023/09/11 13:10:53;;;;;;;408.30;376.15;;;;;;;;;;5031921;28;20053;-56
2023/09/11 13:13:18;;;;;;;432.80;397.48;;;;;;;;;;5032711;28;20064;-57
2023/09/11 13:15:43;;;;;;;467.20;432.43;;;;;;;;;;5041452;28;20040;-55
2023/09/11 13:18:09;;;;;;;499.80;455.00;;;;;;;;;;5024011;28;20018;-57
2023/09/11 13:20:34;;;;;;;466.87;431.97;;;;;;;;;;5031764;28;20028;-56
2023/09/11 13:22:59;;;;;;;434.05;398.83;;;;;;;;;;5031308;28;20410;-56
2023/09/11 13:25:24;;;;;;;342.58;314.92;;;;;;;;;;5032125;28;20021;-55
2023/09/11 13:27:49;;;;;;;509.80;471.17;;;;;;;;;;5032153;28;20029;-56
2023/09/11 13:30:14;;;;;;;550.23;499.50;;;;;;;;;;5028028;28;20116;-57
2023/09/11 13:32:40;;;;;;;528.13;484.23;;;;;;;;;;5025516;28;20020;-56
2023/09/11 13:35:05;;;;;;;579.78;531.47;;;;;;;;;;5049765;28;20460;-57
2023/09/11 13:37:30;;;;;;;483.23;445.50;;;;;;;;;;5051950;28;20028;-57
2023/09/11 13:39:56;;;;;;;;;;;;;;;;;;5032386;28;20553;-56
2023/09/11 13:42:24;;;;;;;652.03;598.97;;;;;;;;;;5028136;28;19917;-56
2023/09/11 13:44:52;;;;;;;480.48;441.08;;;;;;;;;;5019751;28;20024;-56
2023/09/11 13:47:18;;;;;;;517.75;475.15;;;;;;;;;;5012052;28;20025;-57
2023/09/11 13:49:43;;;;;;;490.70;448.73;;;;;;;;;;5018003;28;20029;-57
2023/09/11 13:52:08;;;;;;;519.70;472.20;;;;;;;;;;5031358;28;20017;-57
2023/09/11 13:54:33;;;;;;;588.10;529.90;;;;;;;;;;5031475;28;20018;-58
2023/09/11 13:56:59;;;;;;;479.10;441.63;;;;;;;;;;5021102;28;20049;-55
2023/09/11 13:59:24;;;;;;;498.48;458.73;;;;;;;;;;5019332;28;20508;-57
2023/09/11 14:01:49;;;;;;;516.57;478.67;;;;;;;;;;5014826;28;20116;-56
2023/09/11 14:04:14;;;;;;;464.47;426.17;;;;;;;;;;5019653;28;20017;-56